createdAt,value
2023-04-18T00:01:51.187Z,9.32
2023-04-18T00:04:18.537Z,9.30
2023-04-18T00:06:47.225Z,9.26
2023-04-18T00:09:14.704Z,9.20
2023-04-18T00:11:41.341Z,9.12
2023-04-18T00:14:08.611Z,9.12
2023-04-18T00:16:36.371Z,9.06
2023-04-18T00:19:04.895Z,9.00
2023-04-18T00:21:32.142Z,8.97
2023-04-18T00:24:00.101Z,8.96
2023-04-18T00:26:28.059Z,8.99
2023-04-18T00:28:54.729Z,8.99
2023-04-18T00:31:21.478Z,8.99
2023-04-18T00:33:49.280Z,8.97
2023-04-18T00:36:15.866Z,8.93
2023-04-18T00:38:42.535Z,8.86
2023-04-18T00:41:09.114Z,8.81
2023-04-18T00:43:35.976Z,8.82
2023-04-18T00:46:02.729Z,8.82
2023-04-18T00:48:30.514Z,8.83
2023-04-18T00:50:57.402Z,8.84
2023-04-18T00:53:24.181Z,8.84
2023-04-18T00:55:51.303Z,8.85
2023-04-18T00:58:17.980Z,8.89
2023-04-18T01:00:47.595Z,8.96
2023-04-18T01:03:14.833Z,9.00
2023-04-18T01:05:41.694Z,8.99
2023-04-18T01:08:09.280Z,8.96
2023-04-18T01:10:36.169Z,8.88
2023-04-18T01:13:21.454Z,8.80
2023-04-18T01:15:50.039Z,8.80
2023-04-18T01:18:17.314Z,8.80
2023-04-18T01:20:49.422Z,8.81
2023-04-18T01:23:17.210Z,8.81
2023-04-18T01:25:44.925Z,8.80
2023-04-18T01:28:15.161Z,8.81
2023-04-18T01:30:41.879Z,8.84
2023-04-18T01:33:09.870Z,8.82
2023-04-18T01:35:36.538Z,8.83
2023-04-18T01:38:03.479Z,8.81
2023-04-18T01:40:30.342Z,8.76
2023-04-18T01:42:57.002Z,8.65
2023-04-18T01:45:23.813Z,8.55
2023-04-18T01:47:50.547Z,8.45
2023-04-18T01:50:17.243Z,8.35
2023-04-18T01:52:43.855Z,8.28
2023-04-18T01:55:10.707Z,8.26
2023-04-18T01:57:37.436Z,8.28
2023-04-18T02:00:06.551Z,8.32
2023-04-18T02:02:33.353Z,8.38
2023-04-18T02:05:00.474Z,8.45
2023-04-18T02:07:27.037Z,8.56
2023-04-18T02:09:53.664Z,8.59
2023-04-18T02:12:21.055Z,8.62
2023-04-18T02:14:52.374Z,8.62
2023-04-18T02:17:21.624Z,8.66
2023-04-18T02:19:48.333Z,8.71
2023-04-18T02:22:14.958Z,8.74
2023-04-18T02:24:41.656Z,8.75
2023-04-18T02:27:08.360Z,8.76
2023-04-18T02:29:35.022Z,8.74
2023-04-18T02:32:02.436Z,8.68
2023-04-18T02:34:29.104Z,8.75
2023-04-18T02:36:55.688Z,8.76
2023-04-18T02:39:22.332Z,8.79
2023-04-18T02:41:48.876Z,8.83
2023-04-18T02:44:17.080Z,8.88
2023-04-18T02:46:44.485Z,8.85
2023-04-18T02:49:11.166Z,8.88
2023-04-18T02:51:37.829Z,8.88
2023-04-18T02:54:05.271Z,8.91
2023-04-18T02:56:31.864Z,8.93
2023-04-18T02:58:58.475Z,8.95
2023-04-18T03:01:25.218Z,9.01
2023-04-18T03:03:52.270Z,9.08
2023-04-18T03:06:21.388Z,9.13
2023-04-18T03:08:48.017Z,9.20
2023-04-18T03:11:14.574Z,9.25
2023-04-18T03:13:41.126Z,9.33
2023-04-18T03:16:08.691Z,9.40
2023-04-18T03:18:35.287Z,9.52
2023-04-18T03:21:01.854Z,9.59
2023-04-18T03:23:29.291Z,9.63
2023-04-18T03:25:55.921Z,9.63
2023-04-18T03:28:22.567Z,9.73
2023-04-18T03:30:49.204Z,9.84
2023-04-18T03:33:18.845Z,9.94
2023-04-18T03:35:45.540Z,10.05
2023-04-18T03:38:12.528Z,10.11
2023-04-18T03:40:39.126Z,10.17
2023-04-18T03:43:05.829Z,10.14
2023-04-18T03:45:32.622Z,10.08
2023-04-18T03:47:59.298Z,10.07
2023-04-18T03:50:26.017Z,10.05
2023-04-18T03:52:54.401Z,10.04
2023-04-18T03:55:21.857Z,10.04
2023-04-18T03:57:48.429Z,10.02
2023-04-18T04:00:16.224Z,10.03
2023-04-18T04:02:42.955Z,10.12
2023-04-18T04:05:10.013Z,10.22
2023-04-18T04:07:37.661Z,10.32
2023-04-18T04:10:04.581Z,10.41
2023-04-18T04:12:31.239Z,10.51
2023-04-18T04:14:59.679Z,10.57
2023-04-18T04:17:26.339Z,10.58
2023-04-18T04:19:53.032Z,10.49
2023-04-18T04:22:21.220Z,10.51
2023-04-18T04:24:47.998Z,10.62
2023-04-18T04:27:14.742Z,10.74
2023-04-18T04:29:41.512Z,10.86
2023-04-18T04:32:08.198Z,10.90
2023-04-18T04:34:35.828Z,11.02
2023-04-18T04:37:03.368Z,11.14
2023-04-18T04:39:29.922Z,11.19
2023-04-18T04:41:57.649Z,11.23
2023-04-18T04:44:27.565Z,11.35
2023-04-18T04:46:54.547Z,11.32
2023-04-18T04:49:21.255Z,11.39
2023-04-18T04:51:47.894Z,11.52
2023-04-18T04:54:14.684Z,11.61
2023-04-18T04:56:41.392Z,11.56
2023-04-18T04:59:09.477Z,11.61
2023-04-18T05:01:36.229Z,11.64
2023-04-18T05:04:03.047Z,11.54
2023-04-18T05:06:29.798Z,11.58
2023-04-18T05:08:57.591Z,11.67
2023-04-18T05:11:24.270Z,11.66
2023-04-18T05:13:52.400Z,11.53
2023-04-18T05:16:19.059Z,11.37
2023-04-18T05:18:45.957Z,11.37
2023-04-18T05:21:13.570Z,11.51
2023-04-18T05:23:40.192Z,11.56
2023-04-18T05:26:07.050Z,11.74
2023-04-18T05:28:33.766Z,11.80
2023-04-18T05:31:03.164Z,11.92
2023-04-18T05:33:33.898Z,11.89
2023-04-18T05:36:00.721Z,11.74
2023-04-18T05:38:27.344Z,11.63
2023-04-18T05:40:55.918Z,11.43
2023-04-18T05:43:23.302Z,11.25
2023-04-18T05:45:52.460Z,11.13
2023-04-18T05:48:19.416Z,11.04
2023-04-18T05:50:46.930Z,11.03
2023-04-18T05:53:13.494Z,11.10
2023-04-18T05:55:41.065Z,11.18
2023-04-18T05:58:07.916Z,11.33
2023-04-18T06:00:35.753Z,11.51
2023-04-18T06:03:02.620Z,11.77
2023-04-18T06:05:29.807Z,12.01
2023-04-18T06:07:56.731Z,12.26
2023-04-18T06:10:23.314Z,12.43
2023-04-18T06:12:49.953Z,12.60
2023-04-18T06:15:16.808Z,12.77
2023-04-18T06:17:44.621Z,12.96
2023-04-18T06:20:11.556Z,13.14
2023-04-18T06:22:38.191Z,13.26
2023-04-18T06:25:05.702Z,13.38
2023-04-18T06:27:32.366Z,13.53
2023-04-18T06:29:59.153Z,13.67
2023-04-18T06:32:26.127Z,13.73
2023-04-18T06:34:56.844Z,13.80
2023-04-18T06:37:24.055Z,13.96
2023-04-18T06:39:50.740Z,13.93
2023-04-18T06:42:19.119Z,13.88
2023-04-18T06:44:46.785Z,14.00
2023-04-18T06:47:13.463Z,14.03
2023-04-18T06:49:40.588Z,14.04
2023-04-18T06:52:07.272Z,13.95
2023-04-18T06:54:33.880Z,14.01
2023-04-18T06:57:03.777Z,14.06
2023-04-18T06:59:30.719Z,14.11
2023-04-18T07:01:57.332Z,14.14
2023-04-18T07:05:05.586Z,14.20
2023-04-18T07:07:33.105Z,14.36
2023-04-18T07:10:00.061Z,14.44
2023-04-18T07:12:28.000Z,14.56
2023-04-18T07:14:55.245Z,14.62
2023-04-18T07:17:21.913Z,14.63
2023-04-18T07:19:48.586Z,14.72
2023-04-18T07:22:15.253Z,14.91
2023-04-18T07:24:42.242Z,14.88
2023-04-18T07:27:09.667Z,14.80
2023-04-18T07:29:36.341Z,14.86
2023-04-18T07:32:03.040Z,15.02
2023-04-18T07:34:30.246Z,15.23
2023-04-18T07:36:57.470Z,15.53
2023-04-18T07:39:24.117Z,15.62
2023-04-18T07:41:50.786Z,15.63
2023-04-18T07:44:18.298Z,15.63
2023-04-18T07:46:45.152Z,15.57
2023-04-18T07:49:12.182Z,15.49
2023-04-18T07:51:38.938Z,15.59
2023-04-18T07:54:05.578Z,15.84
2023-04-18T07:56:32.222Z,16.03
2023-04-18T07:58:58.824Z,16.41
2023-04-18T08:01:27.223Z,16.53
2023-04-18T08:03:55.235Z,16.43
2023-04-18T08:06:22.016Z,16.69
2023-04-18T08:08:48.749Z,16.95
2023-04-18T08:11:18.370Z,17.26
2023-04-18T08:13:44.931Z,17.27
2023-04-18T08:16:11.628Z,17.45
2023-04-18T08:18:39.120Z,17.77
2023-04-18T08:21:05.830Z,18.09
2023-04-18T08:23:32.416Z,18.08
2023-04-18T08:26:00.580Z,18.22
2023-04-18T08:28:27.286Z,18.54
2023-04-18T08:30:55.278Z,18.77
2023-04-18T08:33:24.474Z,18.89
2023-04-18T08:35:51.602Z,18.93
2023-04-18T08:38:18.895Z,18.32
2023-04-18T08:40:45.964Z,17.97
2023-04-18T08:43:16.730Z,17.90
2023-04-18T08:45:44.736Z,17.64
2023-04-18T08:48:14.111Z,17.34
2023-04-18T08:50:41.712Z,17.16
2023-04-18T08:53:08.852Z,17.04
2023-04-18T08:55:37.201Z,16.88
2023-04-18T08:58:07.157Z,16.77
2023-04-18T09:00:34.257Z,16.70
2023-04-18T09:03:03.016Z,16.64
2023-04-18T09:05:29.913Z,16.46
2023-04-18T09:07:56.872Z,16.50
2023-04-18T09:10:33.103Z,16.62
2023-04-18T09:13:03.268Z,16.47
2023-04-18T09:15:30.533Z,16.58
2023-04-18T09:18:00.311Z,16.59
2023-04-18T09:20:36.597Z,16.56
2023-04-18T09:23:11.727Z,16.90
2023-04-18T09:25:48.100Z,16.96
2023-04-18T09:28:29.136Z,17.01
2023-04-18T09:30:57.676Z,16.98
2023-04-18T09:33:30.230Z,17.00
2023-04-18T09:35:57.341Z,17.12
2023-04-18T09:38:40.464Z,17.00
2023-04-18T09:41:11.548Z,16.73
2023-04-18T09:43:38.871Z,16.54
2023-04-18T09:46:07.365Z,16.38
2023-04-18T09:48:34.194Z,16.38
2023-04-18T09:51:06.272Z,16.31
2023-04-18T09:53:49.039Z,16.10
2023-04-18T09:56:26.230Z,16.07
2023-04-18T09:59:10.056Z,15.89
2023-04-18T10:01:37.296Z,15.93
2023-04-18T10:04:06.741Z,15.85
2023-04-18T18:34:32.174Z,6.02
2023-04-18T18:36:58.733Z,5.98
2023-04-18T18:39:25.313Z,5.99
2023-04-18T18:41:58.607Z,6.01
2023-04-18T18:44:25.145Z,6.02
2023-04-18T18:46:54.279Z,6.02
2023-04-18T18:49:21.845Z,6.01
2023-04-18T18:51:48.386Z,6.02
2023-04-18T18:54:17.124Z,5.96
2023-04-18T18:56:45.283Z,5.99
2023-04-18T18:59:12.101Z,5.99
2023-04-18T19:01:38.900Z,5.97
2023-04-18T19:04:05.799Z,5.97
2023-04-18T19:06:32.579Z,5.96
2023-04-18T19:09:01.836Z,5.97
2023-04-18T19:11:29.531Z,5.95
2023-04-18T19:13:56.110Z,5.93
2023-04-18T19:16:23.095Z,5.87
2023-04-18T19:18:52.543Z,5.80
2023-04-18T19:21:20.282Z,5.74
2023-04-18T19:23:46.973Z,5.69
2023-04-18T19:26:14.606Z,5.64
2023-04-18T19:28:41.573Z,5.60
2023-04-18T19:31:09.605Z,5.56
2023-04-18T19:33:36.260Z,5.53
2023-04-18T19:36:02.949Z,5.49
2023-04-18T19:38:29.504Z,5.47
2023-04-18T19:40:56.148Z,5.44
2023-04-18T19:43:22.705Z,5.41
2023-04-18T19:45:50.928Z,5.37
2023-04-18T19:48:17.636Z,5.28
2023-04-18T19:50:44.704Z,5.25
2023-04-18T19:53:11.254Z,5.20
2023-04-18T19:55:38.420Z,5.14
2023-04-18T19:58:05.873Z,5.09
2023-04-18T20:00:34.154Z,5.08
2023-04-18T20:03:02.761Z,5.02
2023-04-18T20:05:29.481Z,4.99
2023-04-18T20:07:56.128Z,4.94
2023-04-18T20:10:24.459Z,4.90
2023-04-18T20:12:51.198Z,4.85
2023-04-18T20:15:17.860Z,4.81
2023-04-18T20:17:44.717Z,4.77
2023-04-18T20:20:11.908Z,4.70
2023-04-18T20:22:40.387Z,4.65
2023-04-18T20:25:07.275Z,4.58
2023-04-18T20:27:33.896Z,4.52
2023-04-18T20:30:00.492Z,4.50
2023-04-18T20:32:27.643Z,4.47
2023-04-18T20:34:55.073Z,4.43
2023-04-18T20:37:21.665Z,4.40
2023-04-18T20:39:48.641Z,4.35
2023-04-18T20:42:15.884Z,4.29
2023-04-18T20:44:46.795Z,4.25
2023-04-18T20:47:15.472Z,4.24
2023-04-18T20:49:42.535Z,4.19
2023-04-18T20:52:13.355Z,4.17
2023-04-18T20:54:41.199Z,4.14
2023-04-18T20:57:08.152Z,4.11
2023-04-18T20:59:34.742Z,4.09
2023-04-18T21:02:01.535Z,4.08
2023-04-18T21:04:28.411Z,4.07
2023-04-18T21:06:55.115Z,4.05
2023-04-18T21:09:21.806Z,4.04
2023-04-18T21:11:48.358Z,4.00
2023-04-18T21:14:17.123Z,3.96
2023-04-18T21:16:44.062Z,3.93
2023-04-18T21:19:11.076Z,3.90
2023-04-18T21:21:37.677Z,3.87
2023-04-18T21:24:06.727Z,3.84
2023-04-18T21:26:33.322Z,3.82
2023-04-18T21:29:04.807Z,3.80
2023-04-18T21:31:33.818Z,3.77
2023-04-18T21:34:03.196Z,3.77
2023-04-18T21:36:30.990Z,3.74
2023-04-18T21:38:59.285Z,3.73
2023-04-18T21:41:26.309Z,3.70
2023-04-18T21:43:53.242Z,3.69
2023-04-18T21:46:20.921Z,3.64
2023-04-18T21:48:47.910Z,3.60
2023-04-18T21:51:16.833Z,3.56
2023-04-18T21:53:43.710Z,3.53
2023-04-18T21:56:10.990Z,3.50
2023-04-18T21:58:37.727Z,3.48
2023-04-18T22:01:04.471Z,3.45
2023-04-18T22:03:31.857Z,3.41
2023-04-18T22:05:58.947Z,3.40
2023-04-18T22:08:26.329Z,3.38
2023-04-18T22:11:00.390Z,3.35
2023-04-18T22:13:34.834Z,3.35
2023-04-18T22:16:03.157Z,3.35
2023-04-18T22:18:33.801Z,3.31
2023-04-18T22:21:03.307Z,3.30
2023-04-18T22:23:30.665Z,3.26
2023-04-18T22:25:57.228Z,3.25
2023-04-18T22:28:23.862Z,3.22
2023-04-18T22:30:51.157Z,3.21
2023-04-18T22:33:19.399Z,3.14
2023-04-18T22:35:48.621Z,3.11
2023-04-18T22:38:15.851Z,3.02
2023-04-18T22:40:42.451Z,2.96
2023-04-18T22:43:12.117Z,2.85
2023-04-18T22:45:38.681Z,2.79
2023-04-18T22:48:05.441Z,2.76
2023-04-18T22:50:33.594Z,2.77
2023-04-18T22:53:00.146Z,2.77
2023-04-18T22:55:26.711Z,2.77
2023-04-18T22:57:54.017Z,2.77
2023-04-18T23:00:20.651Z,2.78
2023-04-18T23:02:47.331Z,2.74
2023-04-18T23:05:16.657Z,2.76
2023-04-18T23:07:43.260Z,2.73
2023-04-18T23:10:10.499Z,2.65
2023-04-18T23:12:37.110Z,2.61
2023-04-18T23:15:04.003Z,2.58
2023-04-18T23:17:30.636Z,2.56
2023-04-18T23:19:57.934Z,2.54
2023-04-18T23:22:24.576Z,2.53
2023-04-18T23:24:51.447Z,2.46
2023-04-18T23:27:19.825Z,2.41
2023-04-18T23:29:49.537Z,2.40
2023-04-18T23:32:16.391Z,2.37
2023-04-18T23:34:43.045Z,2.39
2023-04-18T23:37:09.732Z,2.37
2023-04-18T23:39:36.432Z,2.31
2023-04-18T23:42:03.874Z,2.25
2023-04-18T23:44:31.687Z,2.24
2023-04-18T23:46:58.968Z,2.32
2023-04-18T23:49:27.652Z,2.37
2023-04-18T23:51:54.260Z,2.46
2023-04-18T23:54:20.888Z,2.53
2023-04-18T23:56:47.473Z,2.45
2023-04-18T23:59:14.030Z,2.39
